sensor_id;sensor_type;location;lat;lon;timestamp;temperature;humidity
46231;DHT22;31949;51.404;-0.038;2023-08-07T00:02:12;15.20;99.90
46231;DHT22;31949;51.404;-0.038;2023-08-07T00:04:39;15.10;99.90
46231;DHT22;31949;51.404;-0.038;2023-08-07T00:07:07;15.00;99.90
46231;DHT22;31949;51.404;-0.038;2023-08-07T00:09:34;15.00;99.90
46231;DHT22;31949;51.404;-0.038;2023-08-07T00:12:01;15.00;99.90
46231;DHT22;31949;51.404;-0.038;2023-08-07T00:14:30;15.00;99.90
46231;DHT22;31949;51.404;-0.038;2023-08-07T00:16:57;14.90;99.90
46231;DHT22;31949;51.404;-0.038;2023-08-07T00:19:24;14.90;99.90
46231;DHT22;31949;51.404;-0.038;2023-08-07T00:21:52;14.90;99.90
46231;DHT22;31949;51.404;-0.038;2023-08-07T00:24:19;14.80;99.90
46231;DHT22;31949;51.404;-0.038;2023-08-07T00:26:47;14.80;99.90
46231;DHT22;31949;51.404;-0.038;2023-08-07T00:29:14;14.70;99.90
46231;DHT22;31949;51.404;-0.038;2023-08-07T00:31:41;14.70;99.90
46231;DHT22;31949;51.404;-0.038;2023-08-07T00:34:08;14.60;99.90
46231;DHT22;31949;51.404;-0.038;2023-08-07T00:36:36;14.60;99.90
46231;DHT22;31949;51.404;-0.038;2023-08-07T00:39:03;14.60;99.90
46231;DHT22;31949;51.404;-0.038;2023-08-07T00:41:31;14.60;99.90
46231;DHT22;31949;51.404;-0.038;2023-08-07T00:43:58;14.60;99.90
46231;DHT22;31949;51.404;-0.038;2023-08-07T00:46:28;14.50;99.90
46231;DHT22;31949;51.404;-0.038;2023-08-07T00:48:56;14.50;99.90
46231;DHT22;31949;51.404;-0.038;2023-08-07T00:51:24;14.50;99.90
46231;DHT22;31949;51.404;-0.038;2023-08-07T00:53:52;14.40;99.90
46231;DHT22;31949;51.404;-0.038;2023-08-07T00:56:19;14.40;99.90
46231;DHT22;31949;51.404;-0.038;2023-08-07T00:58:47;14.40;99.90
46231;DHT22;31949;51.404;-0.038;2023-08-07T01:01:15;14.30;99.90
46231;DHT22;31949;51.404;-0.038;2023-08-07T01:03:43;14.20;99.90
46231;DHT22;31949;51.404;-0.038;2023-08-07T01:06:10;14.20;99.90
46231;DHT22;31949;51.404;-0.038;2023-08-07T01:08:38;14.20;99.90
46231;DHT22;31949;51.404;-0.038;2023-08-07T01:11:41;14.10;99.90
46231;DHT22;31949;51.404;-0.038;2023-08-07T01:16:45;14.00;99.90
46231;DHT22;31949;51.404;-0.038;2023-08-07T01:19:25;14.00;99.90
46231;DHT22;31949;51.404;-0.038;2023-08-07T01:22:13;14.00;99.90
46231;DHT22;31949;51.404;-0.038;2023-08-07T01:24:42;14.00;99.90
46231;DHT22;31949;51.404;-0.038;2023-08-07T01:29:57;13.90;99.90
46231;DHT22;31949;51.404;-0.038;2023-08-07T01:32:34;13.90;99.90
46231;DHT22;31949;51.404;-0.038;2023-08-07T01:35:02;13.90;99.90
46231;DHT22;31949;51.404;-0.038;2023-08-07T01:37:33;13.90;99.90
46231;DHT22;31949;51.404;-0.038;2023-08-07T01:40:02;13.80;99.90
46231;DHT22;31949;51.404;-0.038;2023-08-07T01:42:31;13.80;99.90
46231;DHT22;31949;51.404;-0.038;2023-08-07T01:44:59;13.80;99.90
46231;DHT22;31949;51.404;-0.038;2023-08-07T01:47:27;13.80;99.90
46231;DHT22;31949;51.404;-0.038;2023-08-07T01:49:55;13.80;99.90
46231;DHT22;31949;51.404;-0.038;2023-08-07T01:52:23;13.70;99.90
46231;DHT22;31949;51.404;-0.038;2023-08-07T01:54:50;13.70;99.90
46231;DHT22;31949;51.404;-0.038;2023-08-07T01:57:17;13.70;99.90
46231;DHT22;31949;51.404;-0.038;2023-08-07T01:59:44;13.70;99.90
46231;DHT22;31949;51.404;-0.038;2023-08-07T02:02:12;13.60;99.90
46231;DHT22;31949;51.404;-0.038;2023-08-07T02:04:39;13.60;99.90
46231;DHT22;31949;51.404;-0.038;2023-08-07T02:07:06;13.60;99.90
46231;DHT22;31949;51.404;-0.038;2023-08-07T02:09:33;13.60;99.90
46231;DHT22;31949;51.404;-0.038;2023-08-07T02:12:01;13.50;99.90
46231;DHT22;31949;51.404;-0.038;2023-08-07T02:14:28;13.50;99.90
46231;DHT22;31949;51.404;-0.038;2023-08-07T02:16:56;13.50;99.90
46231;DHT22;31949;51.404;-0.038;2023-08-07T02:19:23;13.50;99.90
46231;DHT22;31949;51.404;-0.038;2023-08-07T02:21:50;13.40;99.90
46231;DHT22;31949;51.404;-0.038;2023-08-07T02:24:18;13.40;99.90
46231;DHT22;31949;51.404;-0.038;2023-08-07T02:26:47;13.40;99.90
46231;DHT22;31949;51.404;-0.038;2023-08-07T02:29:14;13.40;99.90
46231;DHT22;31949;51.404;-0.038;2023-08-07T02:31:41;13.30;99.90
46231;DHT22;31949;51.404;-0.038;2023-08-07T02:34:09;13.30;99.90
46231;DHT22;31949;51.404;-0.038;2023-08-07T02:36:36;13.30;99.90
46231;DHT22;31949;51.404;-0.038;2023-08-07T02:39:04;13.20;99.90
46231;DHT22;31949;51.404;-0.038;2023-08-07T02:41:32;13.20;99.90
46231;DHT22;31949;51.404;-0.038;2023-08-07T02:44:00;13.20;99.90
46231;DHT22;31949;51.404;-0.038;2023-08-07T02:46:27;13.10;99.90
46231;DHT22;31949;51.404;-0.038;2023-08-07T02:48:54;13.10;99.90
46231;DHT22;31949;51.404;-0.038;2023-08-07T02:51:22;13.10;99.90
46231;DHT22;31949;51.404;-0.038;2023-08-07T02:53:49;13.10;99.90
46231;DHT22;31949;51.404;-0.038;2023-08-07T02:56:16;13.00;99.90
46231;DHT22;31949;51.404;-0.038;2023-08-07T02:58:43;13.00;99.90
46231;DHT22;31949;51.404;-0.038;2023-08-07T03:01:10;13.10;99.90
46231;DHT22;31949;51.404;-0.038;2023-08-07T03:03:38;13.00;99.90
46231;DHT22;31949;51.404;-0.038;2023-08-07T03:06:05;13.00;99.90
46231;DHT22;31949;51.404;-0.038;2023-08-07T03:08:33;13.00;99.90
46231;DHT22;31949;51.404;-0.038;2023-08-07T03:11:00;13.00;99.90
46231;DHT22;31949;51.404;-0.038;2023-08-07T03:13:27;13.00;99.90
46231;DHT22;31949;51.404;-0.038;2023-08-07T03:16:02;13.00;99.90
46231;DHT22;31949;51.404;-0.038;2023-08-07T03:18:30;13.00;99.90
46231;DHT22;31949;51.404;-0.038;2023-08-07T03:21:06;12.90;99.90
46231;DHT22;31949;51.404;-0.038;2023-08-07T03:23:34;12.90;99.90
46231;DHT22;31949;51.404;-0.038;2023-08-07T03:26:05;12.90;99.90
46231;DHT22;31949;51.404;-0.038;2023-08-07T03:28:37;12.90;99.90
46231;DHT22;31949;51.404;-0.038;2023-08-07T03:31:05;12.90;99.90
46231;DHT22;31949;51.404;-0.038;2023-08-07T03:33:35;12.80;99.90
46231;DHT22;31949;51.404;-0.038;2023-08-07T03:36:02;12.80;99.90
46231;DHT22;31949;51.404;-0.038;2023-08-07T03:38:29;12.80;99.90
46231;DHT22;31949;51.404;-0.038;2023-08-07T03:40:57;12.80;99.90
46231;DHT22;31949;51.404;-0.038;2023-08-07T03:43:24;12.80;99.90
46231;DHT22;31949;51.404;-0.038;2023-08-07T03:45:55;12.80;99.90
46231;DHT22;31949;51.404;-0.038;2023-08-07T03:48:30;12.80;99.90
46231;DHT22;31949;51.404;-0.038;2023-08-07T03:51:03;12.80;99.90
46231;DHT22;31949;51.404;-0.038;2023-08-07T03:53:35;12.70;99.90
46231;DHT22;31949;51.404;-0.038;2023-08-07T03:56:02;12.70;99.90
46231;DHT22;31949;51.404;-0.038;2023-08-07T03:58:31;12.70;99.90
46231;DHT22;31949;51.404;-0.038;2023-08-07T04:00:59;12.70;99.90
46231;DHT22;31949;51.404;-0.038;2023-08-07T04:03:26;12.70;99.90
46231;DHT22;31949;51.404;-0.038;2023-08-07T04:05:54;12.60;99.90
46231;DHT22;31949;51.404;-0.038;2023-08-07T04:08:22;12.60;99.90
46231;DHT22;31949;51.404;-0.038;2023-08-07T04:11:00;12.60;99.90
46231;DHT22;31949;51.404;-0.038;2023-08-07T04:13:29;12.60;99.90
46231;DHT22;31949;51.404;-0.038;2023-08-07T04:15:57;12.70;99.90
46231;DHT22;31949;51.404;-0.038;2023-08-07T04:18:24;12.70;99.90
46231;DHT22;31949;51.404;-0.038;2023-08-07T04:20:53;12.60;99.90
46231;DHT22;31949;51.404;-0.038;2023-08-07T04:23:21;12.50;99.90
46231;DHT22;31949;51.404;-0.038;2023-08-07T04:25:49;12.50;99.90
46231;DHT22;31949;51.404;-0.038;2023-08-07T04:28:17;12.50;99.90
46231;DHT22;31949;51.404;-0.038;2023-08-07T04:30:45;12.50;99.90
46231;DHT22;31949;51.404;-0.038;2023-08-07T04:33:12;12.50;99.90
46231;DHT22;31949;51.404;-0.038;2023-08-07T04:35:39;12.40;99.90
46231;DHT22;31949;51.404;-0.038;2023-08-07T04:38:07;12.50;99.90
46231;DHT22;31949;51.404;-0.038;2023-08-07T04:40:34;12.60;99.90
46231;DHT22;31949;51.404;-0.038;2023-08-07T04:43:01;12.50;99.90
46231;DHT22;31949;51.404;-0.038;2023-08-07T04:45:29;12.50;99.90
46231;DHT22;31949;51.404;-0.038;2023-08-07T04:47:56;12.50;99.90
46231;DHT22;31949;51.404;-0.038;2023-08-07T04:50:23;12.40;99.90
46231;DHT22;31949;51.404;-0.038;2023-08-07T04:52:51;12.40;99.90
46231;DHT22;31949;51.404;-0.038;2023-08-07T04:55:18;12.50;99.90
46231;DHT22;31949;51.404;-0.038;2023-08-07T04:57:45;12.50;99.90
46231;DHT22;31949;51.404;-0.038;2023-08-07T05:00:14;12.40;99.90
46231;DHT22;31949;51.404;-0.038;2023-08-07T05:02:41;12.40;99.90
46231;DHT22;31949;51.404;-0.038;2023-08-07T05:05:09;12.50;99.90
46231;DHT22;31949;51.404;-0.038;2023-08-07T05:07:36;12.40;99.90
46231;DHT22;31949;51.404;-0.038;2023-08-07T05:10:04;12.40;99.90
46231;DHT22;31949;51.404;-0.038;2023-08-07T05:12:31;12.40;99.90
46231;DHT22;31949;51.404;-0.038;2023-08-07T05:14:58;12.40;99.90
46231;DHT22;31949;51.404;-0.038;2023-08-07T05:17:25;12.40;99.90
46231;DHT22;31949;51.404;-0.038;2023-08-07T05:19:53;12.40;99.90
46231;DHT22;31949;51.404;-0.038;2023-08-07T05:22:20;12.40;99.90
46231;DHT22;31949;51.404;-0.038;2023-08-07T05:24:47;12.40;99.90
46231;DHT22;31949;51.404;-0.038;2023-08-07T05:27:15;12.40;99.90
46231;DHT22;31949;51.404;-0.038;2023-08-07T05:29:43;12.50;99.90
46231;DHT22;31949;51.404;-0.038;2023-08-07T05:32:11;12.40;99.90
46231;DHT22;31949;51.404;-0.038;2023-08-07T05:34:40;12.50;99.90
46231;DHT22;31949;51.404;-0.038;2023-08-07T05:37:07;12.50;99.90
46231;DHT22;31949;51.404;-0.038;2023-08-07T05:39:35;12.40;99.90
46231;DHT22;31949;51.404;-0.038;2023-08-07T05:42:03;12.60;99.90
46231;DHT22;31949;51.404;-0.038;2023-08-07T05:44:30;12.60;99.90
46231;DHT22;31949;51.404;-0.038;2023-08-07T05:46:57;12.60;99.90
46231;DHT22;31949;51.404;-0.038;2023-08-07T05:49:25;12.60;99.90
46231;DHT22;31949;51.404;-0.038;2023-08-07T05:51:53;12.60;99.90
46231;DHT22;31949;51.404;-0.038;2023-08-07T05:54:21;12.60;99.90
46231;DHT22;31949;51.404;-0.038;2023-08-07T05:56:50;12.60;99.90
46231;DHT22;31949;51.404;-0.038;2023-08-07T05:59:17;12.70;99.90
46231;DHT22;31949;51.404;-0.038;2023-08-07T06:01:44;12.70;99.90
46231;DHT22;31949;51.404;-0.038;2023-08-07T06:04:12;12.80;99.90
46231;DHT22;31949;51.404;-0.038;2023-08-07T06:06:39;12.80;99.90
46231;DHT22;31949;51.404;-0.038;2023-08-07T06:09:07;12.90;99.90
46231;DHT22;31949;51.404;-0.038;2023-08-07T06:11:34;13.00;99.90
46231;DHT22;31949;51.404;-0.038;2023-08-07T06:14:01;13.10;99.90
46231;DHT22;31949;51.404;-0.038;2023-08-07T06:16:29;13.20;99.90
46231;DHT22;31949;51.404;-0.038;2023-08-07T06:18:56;13.20;99.90
46231;DHT22;31949;51.404;-0.038;2023-08-07T06:21:24;13.30;99.90
46231;DHT22;31949;51.404;-0.038;2023-08-07T06:23:51;13.30;99.90
46231;DHT22;31949;51.404;-0.038;2023-08-07T06:26:19;13.40;99.90
46231;DHT22;31949;51.404;-0.038;2023-08-07T06:28:46;13.60;99.90
46231;DHT22;31949;51.404;-0.038;2023-08-07T06:31:15;13.80;99.90
46231;DHT22;31949;51.404;-0.038;2023-08-07T06:33:42;14.00;99.90
46231;DHT22;31949;51.404;-0.038;2023-08-07T06:36:09;14.30;99.90
46231;DHT22;31949;51.404;-0.038;2023-08-07T06:38:36;14.20;99.90
46231;DHT22;31949;51.404;-0.038;2023-08-07T06:41:04;14.50;99.90
46231;DHT22;31949;51.404;-0.038;2023-08-07T06:43:32;14.70;99.90
46231;DHT22;31949;51.404;-0.038;2023-08-07T06:45:59;14.90;99.90
46231;DHT22;31949;51.404;-0.038;2023-08-07T06:48:26;14.90;99.90
46231;DHT22;31949;51.404;-0.038;2023-08-07T06:50:53;15.00;99.90
46231;DHT22;31949;51.404;-0.038;2023-08-07T06:53:21;15.20;99.90
46231;DHT22;31949;51.404;-0.038;2023-08-07T06:55:49;15.40;99.90
46231;DHT22;31949;51.404;-0.038;2023-08-07T06:58:16;15.50;99.90
46231;DHT22;31949;51.404;-0.038;2023-08-07T07:00:43;15.40;99.90
46231;DHT22;31949;51.404;-0.038;2023-08-07T07:03:10;15.50;99.90
46231;DHT22;31949;51.404;-0.038;2023-08-07T07:05:38;15.60;99.90
46231;DHT22;31949;51.404;-0.038;2023-08-07T07:08:05;15.70;99.90
46231;DHT22;31949;51.404;-0.038;2023-08-07T07:10:33;15.70;99.90
46231;DHT22;31949;51.404;-0.038;2023-08-07T07:13:00;15.60;99.90
46231;DHT22;31949;51.404;-0.038;2023-08-07T07:15:28;15.60;99.90
46231;DHT22;31949;51.404;-0.038;2023-08-07T07:17:55;15.70;99.90
46231;DHT22;31949;51.404;-0.038;2023-08-07T07:20:22;15.90;99.90
46231;DHT22;31949;51.404;-0.038;2023-08-07T07:22:50;15.90;99.90
46231;DHT22;31949;51.404;-0.038;2023-08-07T07:25:17;16.10;99.90
46231;DHT22;31949;51.404;-0.038;2023-08-07T07:27:44;16.10;99.90
46231;DHT22;31949;51.404;-0.038;2023-08-07T07:30:11;16.10;99.90
46231;DHT22;31949;51.404;-0.038;2023-08-07T07:32:39;16.30;99.90
46231;DHT22;31949;51.404;-0.038;2023-08-07T07:35:06;16.30;99.90
46231;DHT22;31949;51.404;-0.038;2023-08-07T07:37:34;16.40;99.90
46231;DHT22;31949;51.404;-0.038;2023-08-07T07:40:01;16.50;99.90
46231;DHT22;31949;51.404;-0.038;2023-08-07T07:42:28;16.60;99.90
46231;DHT22;31949;51.404;-0.038;2023-08-07T07:44:55;16.80;99.90
46231;DHT22;31949;51.404;-0.038;2023-08-07T07:47:23;16.80;99.90
46231;DHT22;31949;51.404;-0.038;2023-08-07T07:50:05;17.00;99.90
46231;DHT22;31949;51.404;-0.038;2023-08-07T07:52:33;17.10;99.90
46231;DHT22;31949;51.404;-0.038;2023-08-07T07:55:01;17.20;99.90
46231;DHT22;31949;51.404;-0.038;2023-08-07T07:57:28;17.20;99.90
46231;DHT22;31949;51.404;-0.038;2023-08-07T07:59:55;17.20;99.90
46231;DHT22;31949;51.404;-0.038;2023-08-07T08:02:23;17.20;99.90
46231;DHT22;31949;51.404;-0.038;2023-08-07T08:04:53;17.30;99.90
46231;DHT22;31949;51.404;-0.038;2023-08-07T08:07:20;17.40;99.90
46231;DHT22;31949;51.404;-0.038;2023-08-07T08:09:48;17.40;99.90
46231;DHT22;31949;51.404;-0.038;2023-08-07T08:12:15;17.30;99.90
46231;DHT22;31949;51.404;-0.038;2023-08-07T08:14:42;17.30;99.90
46231;DHT22;31949;51.404;-0.038;2023-08-07T08:17:23;17.30;99.90
46231;DHT22;31949;51.404;-0.038;2023-08-07T08:19:50;17.30;99.90
46231;DHT22;31949;51.404;-0.038;2023-08-07T08:22:18;17.50;99.90
46231;DHT22;31949;51.404;-0.038;2023-08-07T08:24:46;17.50;99.90
46231;DHT22;31949;51.404;-0.038;2023-08-07T08:27:15;17.60;99.90
46231;DHT22;31949;51.404;-0.038;2023-08-07T08:29:42;17.70;99.90
46231;DHT22;31949;51.404;-0.038;2023-08-07T08:32:09;17.80;99.90
46231;DHT22;31949;51.404;-0.038;2023-08-07T08:34:36;17.80;99.90
46231;DHT22;31949;51.404;-0.038;2023-08-07T08:37:04;17.90;99.90
46231;DHT22;31949;51.404;-0.038;2023-08-07T08:39:35;18.00;99.90
46231;DHT22;31949;51.404;-0.038;2023-08-07T08:42:02;18.10;99.90
46231;DHT22;31949;51.404;-0.038;2023-08-07T08:44:31;18.20;99.90
46231;DHT22;31949;51.404;-0.038;2023-08-07T08:47:02;18.20;99.90
46231;DHT22;31949;51.404;-0.038;2023-08-07T08:49:33;18.20;99.90
46231;DHT22;31949;51.404;-0.038;2023-08-07T08:52:03;18.30;99.90
46231;DHT22;31949;51.404;-0.038;2023-08-07T08:54:31;18.40;99.90
46231;DHT22;31949;51.404;-0.038;2023-08-07T08:56:59;18.50;99.90
46231;DHT22;31949;51.404;-0.038;2023-08-07T08:59:27;18.60;99.90
46231;DHT22;31949;51.404;-0.038;2023-08-07T09:01:54;18.80;99.90
46231;DHT22;31949;51.404;-0.038;2023-08-07T09:04:21;18.80;99.90
46231;DHT22;31949;51.404;-0.038;2023-08-07T09:06:49;18.90;99.90
46231;DHT22;31949;51.404;-0.038;2023-08-07T09:09:18;19.00;99.90
46231;DHT22;31949;51.404;-0.038;2023-08-07T09:11:47;19.10;99.90
46231;DHT22;31949;51.404;-0.038;2023-08-07T09:14:20;19.10;99.90
46231;DHT22;31949;51.404;-0.038;2023-08-07T09:16:50;19.20;99.90
46231;DHT22;31949;51.404;-0.038;2023-08-07T09:19:17;19.20;99.90
46231;DHT22;31949;51.404;-0.038;2023-08-07T09:21:44;19.50;99.90
46231;DHT22;31949;51.404;-0.038;2023-08-07T09:24:12;19.70;99.90
46231;DHT22;31949;51.404;-0.038;2023-08-07T09:26:42;19.80;99.90
46231;DHT22;31949;51.404;-0.038;2023-08-07T09:29:12;19.70;99.90
46231;DHT22;31949;51.404;-0.038;2023-08-07T09:31:43;20.00;99.90
46231;DHT22;31949;51.404;-0.038;2023-08-07T09:34:13;20.10;99.90
46231;DHT22;31949;51.404;-0.038;2023-08-07T09:36:43;20.20;99.90
46231;DHT22;31949;51.404;-0.038;2023-08-07T09:39:11;20.10;99.90
46231;DHT22;31949;51.404;-0.038;2023-08-07T09:41:38;20.10;99.90
46231;DHT22;31949;51.404;-0.038;2023-08-07T09:44:10;19.80;99.90
46231;DHT22;31949;51.404;-0.038;2023-08-07T09:46:44;19.80;99.90
46231;DHT22;31949;51.404;-0.038;2023-08-07T09:49:12;19.80;99.90
46231;DHT22;31949;51.404;-0.038;2023-08-07T09:51:46;19.90;99.90
46231;DHT22;31949;51.404;-0.038;2023-08-07T09:54:14;20.00;99.90
46231;DHT22;31949;51.404;-0.038;2023-08-07T09:56:41;19.80;99.90
46231;DHT22;31949;51.404;-0.038;2023-08-07T09:59:09;19.70;99.90
46231;DHT22;31949;51.404;-0.038;2023-08-07T10:01:37;19.80;99.90
46231;DHT22;31949;51.404;-0.038;2023-08-07T10:04:06;19.90;99.90
46231;DHT22;31949;51.404;-0.038;2023-08-07T10:06:34;20.00;99.90
46231;DHT22;31949;51.404;-0.038;2023-08-07T10:09:02;20.10;99.90
46231;DHT22;31949;51.404;-0.038;2023-08-07T10:11:31;20.10;99.90
46231;DHT22;31949;51.404;-0.038;2023-08-07T10:13:59;20.10;99.90
46231;DHT22;31949;51.404;-0.038;2023-08-07T10:16:27;20.20;99.90
46231;DHT22;31949;51.404;-0.038;2023-08-07T10:18:57;20.20;99.90
46231;DHT22;31949;51.404;-0.038;2023-08-07T10:21:24;20.20;99.90
46231;DHT22;31949;51.404;-0.038;2023-08-07T10:23:53;20.10;99.90
46231;DHT22;31949;51.404;-0.038;2023-08-07T10:26:23;20.10;99.90
46231;DHT22;31949;51.404;-0.038;2023-08-07T10:28:52;20.20;99.90
46231;DHT22;31949;51.404;-0.038;2023-08-07T10:31:22;20.30;99.90
46231;DHT22;31949;51.404;-0.038;2023-08-07T10:33:50;20.40;99.90
46231;DHT22;31949;51.404;-0.038;2023-08-07T10:36:18;20.40;99.90
46231;DHT22;31949;51.404;-0.038;2023-08-07T10:38:49;20.50;99.90
46231;DHT22;31949;51.404;-0.038;2023-08-07T10:41:18;20.50;99.90
46231;DHT22;31949;51.404;-0.038;2023-08-07T10:43:50;20.50;99.90
46231;DHT22;31949;51.404;-0.038;2023-08-07T10:46:22;20.40;99.90
46231;DHT22;31949;51.404;-0.038;2023-08-07T10:48:55;20.40;99.90
46231;DHT22;31949;51.404;-0.038;2023-08-07T10:51:29;20.40;99.90
46231;DHT22;31949;51.404;-0.038;2023-08-07T10:53:59;20.40;99.90
46231;DHT22;31949;51.404;-0.038;2023-08-07T10:56:32;20.30;99.90
46231;DHT22;31949;51.404;-0.038;2023-08-07T10:59:11;20.40;99.90
46231;DHT22;31949;51.404;-0.038;2023-08-07T11:01:42;20.40;99.90
46231;DHT22;31949;51.404;-0.038;2023-08-07T11:04:12;20.50;99.90
46231;DHT22;31949;51.404;-0.038;2023-08-07T11:06:40;20.40;99.90
46231;DHT22;31949;51.404;-0.038;2023-08-07T11:09:10;20.40;99.90
46231;DHT22;31949;51.404;-0.038;2023-08-07T11:11:45;20.50;99.90
46231;DHT22;31949;51.404;-0.038;2023-08-07T11:14:18;20.60;99.90
46231;DHT22;31949;51.404;-0.038;2023-08-07T11:16:47;20.50;99.90
46231;DHT22;31949;51.404;-0.038;2023-08-07T11:19:16;20.70;99.90
46231;DHT22;31949;51.404;-0.038;2023-08-07T11:21:44;20.80;99.90
46231;DHT22;31949;51.404;-0.038;2023-08-07T11:24:16;20.70;99.90
46231;DHT22;31949;51.404;-0.038;2023-08-07T11:26:45;20.90;99.90
46231;DHT22;31949;51.404;-0.038;2023-08-07T11:29:19;20.90;99.90
46231;DHT22;31949;51.404;-0.038;2023-08-07T11:31:47;20.90;99.90
46231;DHT22;31949;51.404;-0.038;2023-08-07T11:34:17;21.00;99.90
46231;DHT22;31949;51.404;-0.038;2023-08-07T11:36:46;21.10;99.90
46231;DHT22;31949;51.404;-0.038;2023-08-07T11:39:14;21.00;99.90
46231;DHT22;31949;51.404;-0.038;2023-08-07T11:41:44;21.10;99.90
46231;DHT22;31949;51.404;-0.038;2023-08-07T11:44:11;21.10;99.90
46231;DHT22;31949;51.404;-0.038;2023-08-07T11:46:38;21.20;99.90
46231;DHT22;31949;51.404;-0.038;2023-08-07T11:49:07;21.30;99.90
46231;DHT22;31949;51.404;-0.038;2023-08-07T11:51:37;21.40;99.90
46231;DHT22;31949;51.404;-0.038;2023-08-07T11:54:04;21.50;99.90
46231;DHT22;31949;51.404;-0.038;2023-08-07T11:56:31;21.60;99.90
46231;DHT22;31949;51.404;-0.038;2023-08-07T11:58:59;21.60;99.90
46231;DHT22;31949;51.404;-0.038;2023-08-07T12:01:26;21.50;99.90
46231;DHT22;31949;51.404;-0.038;2023-08-07T12:04:13;21.70;99.90
46231;DHT22;31949;51.404;-0.038;2023-08-07T12:06:55;21.80;99.90
46231;DHT22;31949;51.404;-0.038;2023-08-07T12:09:25;22.00;99.80
46231;DHT22;31949;51.404;-0.038;2023-08-07T12:11:57;22.10;99.90
46231;DHT22;31949;51.404;-0.038;2023-08-07T12:14:30;22.00;99.70
46231;DHT22;31949;51.404;-0.038;2023-08-07T12:16:57;21.90;99.60
46231;DHT22;31949;51.404;-0.038;2023-08-07T12:19:35;21.80;99.40
46231;DHT22;31949;51.404;-0.038;2023-08-07T12:22:06;21.70;99.50
46231;DHT22;31949;51.404;-0.038;2023-08-07T12:24:35;21.80;99.90
46231;DHT22;31949;51.404;-0.038;2023-08-07T12:27:04;21.90;99.90
46231;DHT22;31949;51.404;-0.038;2023-08-07T12:29:32;21.80;99.70
46231;DHT22;31949;51.404;-0.038;2023-08-07T12:32:00;21.80;99.60
46231;DHT22;31949;51.404;-0.038;2023-08-07T12:34:29;21.90;99.60
46231;DHT22;31949;51.404;-0.038;2023-08-07T12:36:59;22.00;99.60
46231;DHT22;31949;51.404;-0.038;2023-08-07T12:39:27;22.00;99.90
46231;DHT22;31949;51.404;-0.038;2023-08-07T12:41:57;22.00;99.20
46231;DHT22;31949;51.404;-0.038;2023-08-07T12:44:28;21.90;99.50
46231;DHT22;31949;51.404;-0.038;2023-08-07T12:46:55;21.80;99.50
46231;DHT22;31949;51.404;-0.038;2023-08-07T12:49:24;21.70;99.70
46231;DHT22;31949;51.404;-0.038;2023-08-07T12:51:51;21.80;99.90
46231;DHT22;31949;51.404;-0.038;2023-08-07T12:54:20;21.80;99.90
46231;DHT22;31949;51.404;-0.038;2023-08-07T12:56:47;21.90;99.90
46231;DHT22;31949;51.404;-0.038;2023-08-07T12:59:14;22.00;98.90
46231;DHT22;31949;51.404;-0.038;2023-08-07T13:01:41;22.10;98.20
46231;DHT22;31949;51.404;-0.038;2023-08-07T13:04:10;22.00;99.00
46231;DHT22;31949;51.404;-0.038;2023-08-07T13:06:39;22.10;98.60
46231;DHT22;31949;51.404;-0.038;2023-08-07T13:09:06;22.10;98.20
46231;DHT22;31949;51.404;-0.038;2023-08-07T13:11:34;22.20;98.20
46231;DHT22;31949;51.404;-0.038;2023-08-07T13:14:01;22.20;98.20
46231;DHT22;31949;51.404;-0.038;2023-08-07T13:16:29;22.30;98.20
46231;DHT22;31949;51.404;-0.038;2023-08-07T13:18:56;22.40;98.90
46231;DHT22;31949;51.404;-0.038;2023-08-07T13:21:24;22.50;98.40
46231;DHT22;31949;51.404;-0.038;2023-08-07T13:23:51;22.50;99.00
46231;DHT22;31949;51.404;-0.038;2023-08-07T13:26:19;22.80;97.80
46231;DHT22;31949;51.404;-0.038;2023-08-07T13:28:47;22.80;97.70
46231;DHT22;31949;51.404;-0.038;2023-08-07T13:31:14;23.10;98.20
46231;DHT22;31949;51.404;-0.038;2023-08-07T13:33:41;23.20;97.50
46231;DHT22;31949;51.404;-0.038;2023-08-07T13:36:09;23.10;98.30
46231;DHT22;31949;51.404;-0.038;2023-08-07T13:38:36;23.00;98.20
46231;DHT22;31949;51.404;-0.038;2023-08-07T13:41:04;23.10;97.90
46231;DHT22;31949;51.404;-0.038;2023-08-07T13:43:31;23.20;96.40
46231;DHT22;31949;51.404;-0.038;2023-08-07T13:45:58;23.10;96.70
46231;DHT22;31949;51.404;-0.038;2023-08-07T13:48:25;23.10;97.00
46231;DHT22;31949;51.404;-0.038;2023-08-07T13:50:55;23.10;97.00
46231;DHT22;31949;51.404;-0.038;2023-08-07T13:53:22;23.10;97.30
46231;DHT22;31949;51.404;-0.038;2023-08-07T13:55:51;23.00;97.00
46231;DHT22;31949;51.404;-0.038;2023-08-07T13:58:18;22.80;97.40
46231;DHT22;31949;51.404;-0.038;2023-08-07T14:00:45;22.80;96.50
46231;DHT22;31949;51.404;-0.038;2023-08-07T14:03:13;22.80;96.80
46231;DHT22;31949;51.404;-0.038;2023-08-07T14:05:42;22.80;96.70
46231;DHT22;31949;51.404;-0.038;2023-08-07T14:08:09;22.80;96.60
46231;DHT22;31949;51.404;-0.038;2023-08-07T14:10:38;22.80;97.30
46231;DHT22;31949;51.404;-0.038;2023-08-07T14:13:09;22.80;97.30
46231;DHT22;31949;51.404;-0.038;2023-08-07T14:15:37;22.90;97.20
46231;DHT22;31949;51.404;-0.038;2023-08-07T14:18:04;22.90;95.40
46231;DHT22;31949;51.404;-0.038;2023-08-07T14:20:32;22.90;96.30
46231;DHT22;31949;51.404;-0.038;2023-08-07T14:23:13;23.00;96.00
46231;DHT22;31949;51.404;-0.038;2023-08-07T14:26:01;23.00;95.30
46231;DHT22;31949;51.404;-0.038;2023-08-07T14:28:29;23.00;96.20
46231;DHT22;31949;51.404;-0.038;2023-08-07T14:30:59;23.10;96.40
46231;DHT22;31949;51.404;-0.038;2023-08-07T14:33:28;23.30;96.60
46231;DHT22;31949;51.404;-0.038;2023-08-07T14:35:56;23.30;95.30
46231;DHT22;31949;51.404;-0.038;2023-08-07T14:38:24;23.30;95.40
46231;DHT22;31949;51.404;-0.038;2023-08-07T14:40:51;23.40;95.70
46231;DHT22;31949;51.404;-0.038;2023-08-07T14:43:18;23.30;95.50
46231;DHT22;31949;51.404;-0.038;2023-08-07T14:45:46;23.30;94.90
46231;DHT22;31949;51.404;-0.038;2023-08-07T14:48:14;23.30;95.80
46231;DHT22;31949;51.404;-0.038;2023-08-07T14:50:42;23.20;95.80
46231;DHT22;31949;51.404;-0.038;2023-08-07T14:53:09;23.20;95.70
46231;DHT22;31949;51.404;-0.038;2023-08-07T14:55:37;23.10;96.00
46231;DHT22;31949;51.404;-0.038;2023-08-07T14:58:04;23.20;95.70
46231;DHT22;31949;51.404;-0.038;2023-08-07T15:00:31;23.20;95.30
46231;DHT22;31949;51.404;-0.038;2023-08-07T15:02:59;23.40;95.60
46231;DHT22;31949;51.404;-0.038;2023-08-07T15:05:26;23.40;95.20
46231;DHT22;31949;51.404;-0.038;2023-08-07T15:07:54;23.30;95.50
46231;DHT22;31949;51.404;-0.038;2023-08-07T15:10:21;23.30;95.80
46231;DHT22;31949;51.404;-0.038;2023-08-07T15:12:49;23.20;95.80
46231;DHT22;31949;51.404;-0.038;2023-08-07T15:15:16;23.20;95.70
46231;DHT22;31949;51.404;-0.038;2023-08-07T15:17:43;23.10;95.30
46231;DHT22;31949;51.404;-0.038;2023-08-07T15:20:11;23.10;96.10
46231;DHT22;31949;51.404;-0.038;2023-08-07T15:22:38;22.90;96.00
46231;DHT22;31949;51.404;-0.038;2023-08-07T15:25:06;22.90;96.50
46231;DHT22;31949;51.404;-0.038;2023-08-07T15:27:34;22.90;95.90
46231;DHT22;31949;51.404;-0.038;2023-08-07T15:30:01;22.90;96.30